Latest Weather Observations for Gold Coast Seaway

IDQ60801

Issued at 1:32 pm EST Sunday 25 January 2015 (issued every 30 minutes, with the page automatically refreshed every 10 minutes)

About weather observations | Map of weather stations | Latest weather observations for QLD | Other Formats
Station Details ID: 040764 Name: GOLD COAST SEAWAY Lat: -27.94 Lon: 153.43 Height: 2.98 m
Data from the previous 72 hours. | See also: Recent months at Gold Coast Seaway
Date/Time
EST
Temp
°C
App
Temp
°C
Dew
Point
Rel
Hum
%
Delta-T
°C
Wind Press
QNH
hPa
Press
MSL
hPa
Rain
since 9 am
mm
Dir
 
Spd
km/h
Gust
km/h
Spd
kts
Gust
kts
25/01:30pm 31.3 33.4 25.4 71 4.2 NE 24 30 13 16 1003.3 1003.3 0.0
25/01:00pm 30.3 32.6 24.4 70 4.1 NNE 20 26 11 14 1003.5 1003.5 0.0
25/12:30pm 31.1 32.4 24.0 66 4.9 NNE 24 28 13 15 1003.7 1003.7 0.0
25/12:00pm 31.7 34.3 24.0 63 5.4 NNE 17 28 9 15 1004.0 1004.0 0.0
25/11:30am 32.5 33.8 21.7 53 7.3 NW 17 24 9 13 1004.2 1004.2 0.0
25/11:00am 31.9 33.9 22.3 56 6.6 NW 15 26 8 14 1004.6 1004.6 0.0
25/10:30am 31.5 32.4 21.9 56 6.5 NW 20 30 11 16 1005.0 1005.0 0.0
25/10:00am 30.5 32.3 21.8 59 5.9 NW 15 24 8 13 1005.2 1005.2 0.0
25/09:30am 29.8 30.1 22.3 64 5.1 NW 24 32 13 17 1005.4 1005.4 0.0
25/09:00am 28.9 28.8 22.2 67 4.5 NW 26 32 14 17 1005.5 1005.5 -
25/08:30am 28.0 27.4 22.0 70 4.0 NNW 28 37 15 20 1006.2 1006.2 -
25/08:00am 27.4 28.6 21.4 70 4.0 NW 17 24 9 13 1006.4 1006.4 -
25/07:30am 26.6 28.9 21.4 73 3.5 NW 11 15 6 8 1006.5 1006.5 -
25/07:00am 25.6 27.9 21.3 77 2.9 NW 11 15 6 8 1006.4 1006.4 -
25/06:30am 24.6 27.1 21.7 84 1.9 NW 11 15 6 8 1006.3 1006.3 -
25/06:00am 24.0 26.2 21.9 88 1.4 NW 13 15 7 8 1006.0 1006.0 -
25/05:30am 23.8 26.4 21.9 89 1.3 NW 11 13 6 7 1005.9 1005.9 -
25/05:00am 24.1 26.5 21.6 86 1.7 NW 11 13 6 7 1005.7 1005.7 -
25/04:30am 24.3 25.7 21.8 86 1.7 NW 17 22 9 12 1005.5 1005.5 -
25/04:00am 24.2 26.5 22.1 88 1.4 NW 13 17 7 9 1005.6 1005.6 0.0
25/03:30am 24.1 26.6 22.5 91 1.1 NW 13 17 7 9 1005.2 1005.2 0.0
25/03:00am 24.2 26.7 23.2 94 0.7 NW 15 19 8 10 1005.2 1005.2 0.0
25/02:30am 24.2 27.7 23.5 96 0.5 SE 11 13 6 7 1005.2 1005.2 0.0
25/02:00am 24.2 28.0 23.5 96 0.5 SE 9 11 5 6 1005.3 1005.3 0.0
25/01:30am 24.1 28.1 23.1 94 0.7 SE 7 9 4 5 1005.4 1005.4 0.0
25/01:00am 24.1 27.3 23.1 94 0.7 SE 11 11 6 6 1005.6 1005.6 0.0
25/12:30am 24.2 28.0 23.5 96 0.5 SE 9 11 5 6 1005.8 1005.8 0.0
25/12:00am 24.0 28.5 23.7 98 0.2 SE 6 7 3 4 1005.9 1005.9 0.0
 
Date/Time
EST
Temp
°C
App
Temp
°C
Dew
Point
Rel
Hum
%
Delta-T
°C
Wind Press
QNH
hPa
Press
MSL
hPa
Rain
since 9 am
mm
Dir
 
Spd
km/h
Gust
km/h
Spd
kts
Gust
kts
24/11:30pm 23.9 28.4 23.6 98 0.2 SE 6 7 3 4 1006.1 1006.1 0.0
24/11:00pm 23.7 29.0 23.0 96 0.5 CALM 0 0 0 0 1006.5 1006.5 0.0
24/10:30pm 24.0 29.4 23.3 96 0.5 CALM 0 0 0 0 1006.7 1006.7 0.0
24/10:00pm 23.9 28.1 22.5 92 0.9 SE 4 7 2 4 1006.7 1006.7 0.0
24/09:30pm 24.1 27.7 22.4 90 1.1 SE 7 9 4 5 1006.3 1006.3 0.0
24/09:00pm 24.4 28.1 22.5 89 1.3 SE 7 9 4 5 1006.1 1006.1 0.0
24/08:30pm 24.8 28.2 22.7 88 1.4 SE 9 11 5 6 1006.0 1006.0 0.0
24/08:00pm 24.9 27.9 22.6 87 1.6 SE 11 13 6 7 1005.7 1005.7 0.0
24/07:30pm 25.0 27.4 22.3 85 1.8 SE 13 15 7 8 1005.4 1005.4 0.0
24/07:00pm 25.4 27.8 22.9 86 1.7 SE 15 17 8 9 1005.2 1005.2 0.0
24/06:30pm 25.6 27.0 22.5 83 2.1 SE 19 26 10 14 1005.0 1005.0 0.0
24/06:00pm 26.4 27.8 22.9 81 2.4 SE 20 26 11 14 1004.7 1004.7 0.0
24/05:30pm 26.6 27.5 22.7 79 2.6 SE 22 26 12 14 1004.8 1004.8 0.0
24/05:00pm 27.1 27.0 22.9 78 2.9 SE 28 32 15 17 1004.5 1004.5 0.0
24/04:30pm 27.3 27.4 22.5 75 3.2 SE 26 30 14 16 1004.4 1004.4 0.0
24/04:00pm 28.0 27.9 22.2 70 3.9 SE 26 32 14 17 1004.7 1004.7 0.0
24/03:30pm 28.4 28.3 22.9 72 3.7 SE 28 32 15 17 1004.6 1004.6 0.0
24/03:00pm 27.5 27.7 22.7 75 3.3 SE 26 32 14 17 1004.9 1004.9 0.0
24/02:30pm 27.3 26.3 22.0 73 3.6 SE 30 33 16 18 1005.2 1005.2 0.0
24/02:00pm 28.1 27.6 22.1 70 4.1 SE 28 32 15 17 1005.5 1005.5 0.0
24/01:30pm 27.8 27.5 21.8 70 4.0 SE 26 32 14 17 1005.4 1005.4 0.0
24/01:00pm 29.2 30.3 23.6 72 3.9 SE 24 28 13 15 1005.7 1005.7 0.0
24/12:30pm 28.9 29.9 22.9 70 4.1 SSE 22 28 12 15 1005.8 1005.8 0.0
24/12:00pm 28.7 29.0 22.9 71 4.0 SE 26 32 14 17 1005.9 1005.9 0.0
24/11:30am 28.0 28.3 22.2 70 3.9 SSE 24 28 13 15 1006.2 1006.2 0.0
24/11:00am 27.9 28.7 23.1 75 3.3 SSE 24 28 13 15 1006.3 1006.3 0.0
24/10:30am 27.5 27.8 22.2 73 3.6 S 24 30 13 16 1006.6 1006.6 0.0
24/10:00am 26.3 25.7 21.9 77 2.9 S 28 32 15 17 1006.4 1006.4 0.0
24/09:30am 25.9 25.3 22.6 82 2.2 S 30 35 16 19 1006.3 1006.3 0.0
24/09:00am 25.3 24.2 22.4 84 2.0 S 32 35 17 19 1006.4 1006.4 155.8
24/08:30am 24.1 23.3 22.4 90 1.1 S 30 33 16 18 1006.2 1006.2 155.8
24/08:00am 23.6 25.3 23.4 99 0.1 S 20 26 11 14 1006.2 1006.2 155.8
24/07:30am 22.7 23.6 22.7 100 0.0 S 22 30 12 16 1006.1 1006.1 155.8
24/07:00am 22.1 23.3 22.1 100 0.0 S 19 26 10 14 1006.0 1006.0 155.8
24/06:30am 22.0 23.5 22.0 100 0.0 SSW 17 26 9 14 1006.0 1006.0 155.8
24/06:00am 21.8 22.8 21.8 100 0.0 SSW 19 28 10 15 1005.6 1005.6 155.8
24/05:30am 22.0 24.3 22.0 100 0.0 SSW 13 20 7 11 1005.4 1005.4 155.4
24/05:00am 22.4 23.5 22.4 100 0.0 SSE 20 32 11 17 1005.3 1005.3 155.0
24/04:30am 22.8 21.3 22.8 100 0.0 ESE 35 44 19 24 1004.8 1004.8 153.4
24/04:23am 22.7 21.2 22.7 100 0.0 SE 35 44 19 24 1004.8 1004.8 152.8
24/04:00am 22.8 23.8 22.8 100 0.0 SE 22 39 12 21 1004.5 1004.5 151.2
24/03:30am 22.6 22.7 22.6 100 0.0 SSE 26 39 14 21 1004.4 1004.4 146.0
24/03:00am 23.2 24.4 23.2 100 0.0 ESE 22 30 12 16 1004.4 1004.4 144.4
24/02:44am 23.1 23.1 23.1 100 0.0 SE 28 44 15 24 1004.4 1004.4 143.8
24/02:30am 23.3 24.2 23.3 100 0.0 SE 24 28 13 15 1004.4 1004.4 143.8
24/02:00am 23.4 23.5 23.2 99 0.1 ESE 28 32 15 17 1004.2 1004.2 142.8
24/01:30am 23.6 23.5 23.6 100 0.0 ESE 30 39 16 21 1004.4 1004.4 142.6
24/01:00am 23.5 23.7 23.5 100 0.0 ESE 28 35 15 19 1004.5 1004.5 142.4
24/12:30am 23.4 21.5 23.4 100 0.0 ESE 39 44 21 24 1004.8 1004.8 142.4
24/12:00am 23.1 21.8 23.1 100 0.0 SE 35 41 19 22 1005.2 1005.2 142.2
 
Date/Time
EST
Temp
°C
App
Temp
°C
Dew
Point
Rel
Hum
%
Delta-T
°C
Wind Press
QNH
hPa
Press
MSL
hPa
Rain
since 9 am
mm
Dir
 
Spd
km/h
Gust
km/h
Spd
kts
Gust
kts
23/11:30pm 22.6 22.0 22.6 100 0.0 SSE 30 39 16 21 1005.6 1005.6 142.0
23/11:00pm 22.6 19.3 22.6 100 0.0 SE 44 54 24 29 1005.7 1005.7 141.4
23/10:30pm 22.5 19.1 22.5 100 0.0 SE 44 56 24 30 1006.0 1006.0 140.6
23/10:00pm 21.8 18.6 21.8 100 0.0 SSE 41 54 22 29 1006.8 1006.8 139.4
23/09:57pm 22.0 19.3 22.0 100 0.0 SSE 39 54 21 29 1006.7 1006.7 139.2
23/09:30pm 21.1 19.3 21.1 100 0.0 SSE 32 35 17 19 1006.9 1006.9 137.8
23/09:00pm 20.9 18.8 20.9 100 0.0 S 33 44 18 24 1007.0 1007.0 134.6
23/08:42pm 20.9 17.6 20.9 100 0.0 S 39 57 21 31 1007.1 1007.1 133.0
23/08:30pm 20.9 17.6 20.9 100 0.0 S 39 48 21 26 1007.3 1007.3 132.4
23/08:00pm 20.6 15.9 20.6 100 0.0 SSE 46 61 25 33 1007.2 1007.2 130.8
23/07:30pm 20.3 16.4 20.3 100 0.0 SSE 41 56 22 30 1007.3 1007.3 128.4
23/07:00pm 20.2 14.4 20.0 99 0.1 SSE 50 59 27 32 1007.1 1007.1 125.6
23/06:30pm 20.9 15.6 20.9 100 0.0 SSE 50 59 27 32 1006.5 1006.5 121.6
23/06:00pm 20.8 15.8 20.8 100 0.0 SSE 48 63 26 34 1006.6 1006.6 117.2
23/05:30pm 19.5 12.3 19.5 100 0.0 SSE 56 65 30 35 1006.5 1006.5 112.4
23/05:26pm 19.8 13.9 19.8 100 0.0 SSE 50 65 27 35 1006.4 1006.4 111.8
23/05:21pm 21.0 17.4 21.0 100 0.0 SSE 41 59 22 32 1006.4 1006.4 110.8
23/05:00pm 21.4 19.2 21.4 100 0.0 SSE 35 44 19 24 1006.1 1006.1 107.6
23/04:30pm 22.0 21.4 22.0 100 0.0 SSE 28 39 15 21 1006.3 1006.3 103.8
23/04:00pm 21.5 21.4 21.5 100 0.0 S 24 39 13 21 1006.3 1006.3 97.8
23/03:30pm 22.0 20.1 22.0 100 0.0 SSE 35 54 19 29 1006.5 1006.5 93.4
23/03:00pm 21.5 20.6 21.5 100 0.0 SSE 28 41 15 22 1006.4 1006.4 87.8
23/02:30pm 22.1 21.6 22.1 100 0.0 SSE 28 33 15 18 1006.6 1006.6 80.0
23/02:00pm 22.4 21.6 22.4 100 0.0 SE 30 39 16 21 1006.5 1006.5 71.2
23/01:30pm 22.8 21.3 22.8 100 0.0 SE 35 41 19 22 1006.5 1006.5 58.0
23/01:00pm 22.7 22.9 22.7 100 0.0 SSE 26 35 14 19 1006.8 1006.8 50.6
23/12:30pm 23.1 24.2 23.1 100 0.0 ESE 22 28 12 15 1007.3 1007.3 48.4
23/12:00pm 21.9 22.0 21.9 100 0.0 E 24 32 13 17 1007.9 1007.9 46.0
23/11:30am 22.6 24.0 22.6 100 0.0 E 19 35 10 19 1008.0 1008.0 34.6
23/11:00am 23.1 22.2 23.1 100 0.0 ESE 33 41 18 22 1008.1 1008.1 23.8
23/10:30am 23.6 22.6 23.6 100 0.0 ESE 35 39 19 21 1008.0 1008.0 14.8
23/10:00am 22.9 21.8 22.9 100 0.0 ESE 33 44 18 24 1008.3 1008.3 11.4
23/09:30am 23.4 24.3 23.4 100 0.0 E 24 30 13 16 1008.4 1008.4 3.8
23/09:00am 23.2 23.3 23.2 100 0.0 E 28 33 15 18 1008.6 1008.6 73.4
23/08:30am 23.1 22.3 23.1 100 0.0 E 32 39 17 21 1008.8 1008.8 71.4
23/08:00am 23.1 22.2 23.1 100 0.0 ESE 33 41 18 22 1008.8 1008.8 70.4
23/07:30am 23.7 21.8 23.5 99 0.1 ESE 39 48 21 26 1008.5 1008.5 68.6
23/07:00am 23.0 21.9 22.8 99 0.1 E 33 39 18 21 1008.3 1008.3 67.8
23/06:30am 22.9 23.2 22.9 100 0.0 E 26 35 14 19 1008.4 1008.4 65.8
23/06:00am 23.6 20.1 23.6 100 0.0 E 48 56 26 30 1008.0 1008.0 62.0
23/05:30am 23.5 23.4 23.5 100 0.0 E 30 41 16 22 1007.9 1007.9 60.2
23/05:00am 23.2 23.6 23.2 100 0.0 ESE 26 33 14 18 1007.6 1007.6 59.4
23/04:54am 23.4 24.0 23.4 100 0.0 ESE 26 33 14 18 1007.6 1007.6 59.4
23/04:30am 23.7 21.6 23.7 100 0.0 E 41 50 22 27 1007.4 1007.4 54.0
23/04:15am 23.6 23.1 23.6 100 0.0 ESE 32 43 17 23 1007.2 1007.2 52.0
23/04:00am 22.9 23.2 22.9 100 0.0 SSE 26 30 14 16 1007.3 1007.3 52.0
23/03:30am 22.6 25.6 22.6 100 0.0 SSE 11 19 6 10 1007.3 1007.3 51.4
23/03:00am 22.6 24.8 22.6 100 0.0 S 15 22 8 12 1007.6 1007.6 45.2
23/02:30am 22.3 25.9 22.3 100 0.0 S 7 11 4 6 1007.7 1007.7 42.6
23/02:00am 22.2 24.9 22.2 100 0.0 S 11 15 6 8 1008.0 1008.0 42.4
23/01:30am 22.2 24.6 22.2 100 0.0 SSE 13 17 7 9 1008.2 1008.2 42.4
23/01:00am 22.4 25.6 22.4 100 0.0 ESE 9 11 5 6 1008.8 1008.8 41.4
23/12:30am 22.5 25.0 22.5 100 0.0 E 13 19 7 10 1009.0 1009.0 38.8
23/12:00am 22.2 24.8 22.0 99 0.1 E 11 15 6 8 1009.5 1009.5 38.0
 
Date/Time
EST
Temp
°C
App
Temp
°C
Dew
Point
Rel
Hum
%
Delta-T
°C
Wind Press
QNH
hPa
Press
MSL
hPa
Rain
since 9 am
mm
Dir
 
Spd
km/h
Gust
km/h
Spd
kts
Gust
kts
22/11:30pm 23.0 23.6 22.8 99 0.1 E 24 32 13 17 1010.0 1010.0 36.2
22/11:00pm 22.4 25.6 22.4 100 0.0 ESE 9 13 5 7 1010.1 1010.1 36.0
22/10:30pm 22.4 24.9 22.4 100 0.0 ESE 13 15 7 8 1010.6 1010.6 36.0
22/10:00pm 22.4 25.6 22.4 100 0.0 ESE 9 11 5 6 1010.6 1010.6 35.8
22/09:30pm 22.3 24.7 22.3 100 0.0 E 13 19 7 10 1011.1 1011.1 34.6
22/09:00pm 22.1 24.8 22.1 100 0.0 E 11 15 6 8 1010.7 1010.7 30.4
22/08:30pm 22.7 22.9 22.7 100 0.0 NE 26 35 14 19 1011.0 1011.0 29.0
22/08:23pm 22.4 24.0 22.2 99 0.1 SE 17 35 9 19 1011.1 1011.1 27.6
22/08:00pm 22.7 26.4 22.5 99 0.1 SSE 7 17 4 9 1010.6 1010.6 22.8
22/07:30pm 22.6 24.7 22.4 99 0.1 NE 15 30 8 16 1010.1 1010.1 19.2
22/07:00pm 23.1 26.3 22.4 96 0.5 ENE 9 15 5 8 1009.9 1009.9 11.6
22/06:30pm 24.2 27.6 24.0 99 0.1 NNE 13 20 7 11 1009.5 1009.5 4.4
22/06:00pm 24.1 26.3 23.9 99 0.1 NNE 19 22 10 12 1009.2 1009.2 4.2
22/05:30pm 23.8 25.8 23.6 99 0.1 E 19 26 10 14 1008.7 1008.7 3.4
22/05:00pm 23.9 23.7 23.4 97 0.3 ENE 30 37 16 20 1008.3 1008.3 2.2
22/04:30pm 23.7 21.7 21.2 86 1.6 ENE 33 43 18 23 1008.1 1008.1 1.6
22/04:26pm 24.5 24.2 21.8 85 1.8 E 26 43 14 23 1008.0 1008.0 0.6
22/04:00pm 26.1 27.6 22.0 78 2.7 E 17 19 9 10 1008.1 1008.1 0.0
22/03:30pm 25.9 26.3 20.7 73 3.4 ENE 19 26 10 14 1008.4 1008.4 0.0
22/03:00pm 25.8 27.3 21.2 76 3.0 E 15 17 8 9 1008.6 1008.6 0.0
22/02:30pm 26.0 27.6 22.1 79 2.6 ENE 17 22 9 12 1008.9 1008.9 0.0
22/02:00pm 25.5 24.9 21.2 77 2.8 E 26 33 14 18 1009.2 1009.2 0.0

Other Formats:

Comma delimited format used in spreadsheet applications
http://www.bom.gov.au/fwo/IDQ60801/IDQ60801.94580.axf

JavaScript Object Notation format (JSON) in row-major order
http://www.bom.gov.au/fwo/IDQ60801/IDQ60801.94580.json